Historyczne dane pomiarowe

Dodano dane terminowe – wersja testowa.

Dane z okresu 1951-2019

Wersja bazy: 1.34 [2019-03-16, lista zmian], aktualizacja planowana na 2019-04-15

Dane meteo z obszaru Polski uzyskane na podstawie danych udostępnionych przez Instytut Meteorologii i Gospodarki Wodnej – Państwowy Instytut Badawczy.

 

Wybierz Datę:    

       

TemperaturaWilgotnośćZachmurzenieWiatrCiśnienieWidzialnośćZjawiska
 Data    tng td wb rh cc ccl cl cm ch dir g1 g2 mslp ppp      
1999-06-22 00:00:00 11.3--- 8.1 9.681wxwxwx2wx--1012.3 989.2 0.0---wx
1999-06-22 01:00:00 11.2--- 7.8 9.479wxwxwx2wx--1012.9 989.8----wx
1999-06-22 02:00:00 10.4--- 8.1 9.286wxwxwxwx2wx--1013.3 990.1----wx
1999-06-22 03:00:00 10.0--- 7.7 8.886wxwxwx3wx--1013.4 990.2----wx
1999-06-22 04:00:00 9.9--- 7.6 8.785wxwxwx3wx--1014.1 990.8----wx
1999-06-22 05:00:00 9.9--- 7.6 8.785wxwxwx4wx--1014.0 990.7----wx
1999-06-22 06:00:00 10.1--- 7.8 8.986wxwxwx3wx--1014.6 991.3 0.0---wx
1999-06-22 07:00:00 10.7--- 8.2 9.485wxwxwx3wx--1014.8 991.6----wx
1999-06-22 08:00:00 11.1--- 8.3 9.683wxwxwxwx3wx--1015.0 991.8----wx
1999-06-22 09:00:00 11.7--- 8.5 10.081wxwxwxwx4wx--1015.1 992.0----wx
1999-06-22 10:00:00 11.7--- 7.7 9.676wxwxwxwx4wx--1015.9 992.7----wx
1999-06-22 11:00:00 12.1--- 7.7 9.875wxwxwxwx3wx--1016.0 992.9----wx
1999-06-22 12:00:00 12.1--- 7.5 9.774wxwxwxwx4wx--1016.3 993.2 0.0---wx
1999-06-22 13:00:00 11.6--- 8.6 10.082wxwxwx3wx--1016.5 993.3----wxw1
1999-06-22 14:00:00 11.4--- 9.8 10.590wxwxwx2wx--1016.9 993.7----wxw1
1999-06-22 15:00:00 11.7--- 9.1 10.384wxwxwxwx3wx--1016.6 993.4----wxw1
1999-06-22 16:00:00 10.5--- 8.6 9.588wxwxwx4wx--1017.1 993.8----wxw1
1999-06-22 17:00:00 11.6--- 9.4 10.486wxwxwx3wx--1017.5 994.3----wxw1
1999-06-22 18:00:00 11.1--- 10.2 10.694wxwxwxwx3wx--1017.7 994.5 2.6---wxw1
1999-06-22 19:00:00 11.1--- 9.2 10.188wxwxwxwxwx2wx--1017.9 994.6----wx
1999-06-22 20:00:00 10.4--- 9.7 10.095wxwxwxwx2wx--1018.1 994.8----wx
1999-06-22 21:00:00 10.1--- 9.2 9.694wxwxwxwxwx2wx--1018.1 994.8----wx
1999-06-22 22:00:00 9.9--- 8.2 9.089wxwxwxwx3wx--1018.4 995.0----wx
1999-06-22 23:00:00 9.4--- 7.3 8.386wxwxwx3wx--1018.4 995.0----wx

 

Źródłem pochodzenia danych jest Instytut Meteorologii i Gospodarki Wodnej – Państwowy Instytut Badawczy. Dane Instytutu Meteorologii i Gospodarki Wodnej – Państwowego Instytutu Badawczego zostały przetworzone.

Dane źródłowe można odnaleźć na stronie https://dane.imgw.pl